Time;durP1;ratioP1;P1;durP2;ratioP2;P2;SDS_P1;SDS_P2;PMS_P1;PMS_P2;Temp;Humidity;BMP_temperature;BMP_pressure;BME280_temperature;BME280_humidity;BME280_pressure;Samples;Min_cycle;Max_cycle;Signal;HPM_P1;HPM_P2
2021/06/20 00:00:31;;;;;;;6.75;2.97;;;25.00;68.50;;;;;;5034541;28;20029;-66
2021/06/20 00:02:57;;;;;;;5.50;2.92;;;25.10;68.40;;;;;;5051454;28;20029;-67
2021/06/20 00:05:30;;;;;;;5.47;2.95;;;25.00;68.50;;;;;;5052359;28;20055;-67
2021/06/20 00:07:58;;;;;;;9.10;3.10;;;24.90;69.40;;;;;;5051875;28;20025;-67
2021/06/20 00:10:26;;;;;;;8.02;3.55;;;24.90;69.70;;;;;;5034238;28;20029;-68
2021/06/20 00:12:52;;;;;;;10.48;3.58;;;24.90;71.60;;;;;;5034364;28;20021;-68
2021/06/20 00:15:20;;;;;;;8.30;3.30;;;24.90;69.90;;;;;;5052270;28;20047;-67
2021/06/20 00:17:46;;;;;;;4.80;2.97;;;24.90;70.50;;;;;;5051541;28;20025;-68
2021/06/20 00:20:14;;;;;;;6.40;3.60;;;24.90;70.90;;;;;;5052075;28;20048;-67
2021/06/20 00:22:40;;;;;;;5.70;3.30;;;24.70;73.00;;;;;;5051911;28;20070;-67
2021/06/20 00:25:06;;;;;;;5.70;3.50;;;24.60;72.80;;;;;;5051833;28;20104;-68
2021/06/20 00:27:32;;;;;;;6.50;4.00;;;24.50;73.30;;;;;;5051721;28;20036;-67
2021/06/20 00:29:58;;;;;;;6.43;4.03;;;24.40;74.10;;;;;;5051700;28;20021;-67
2021/06/20 00:32:23;;;;;;;7.00;4.20;;;23.40;78.30;;;;;;5051824;28;20029;-67
2021/06/20 00:34:49;;;;;;;7.30;4.72;;;22.50;84.70;;;;;;5051769;28;20486;-68
2021/06/20 00:37:15;;;;;;;8.63;5.10;;;22.10;86.40;;;;;;5033552;28;20029;-67
2021/06/20 00:39:40;;;;;;;9.48;5.07;;;22.10;85.90;;;;;;5051821;28;20025;-67
2021/06/20 00:42:06;;;;;;;9.45;4.90;;;22.10;86.70;;;;;;5033731;28;20025;-67
2021/06/20 00:44:46;;;;;;;7.53;4.43;;;22.20;87.50;;;;;;5032380;28;20024;-67
2021/06/20 00:47:12;;;;;;;8.57;5.15;;;22.20;86.30;;;;;;5015262;28;20029;-67
2021/06/20 00:49:38;;;;;;;9.25;5.38;;;22.10;91.20;;;;;;5027919;28;20037;-66
2021/06/20 00:52:03;;;;;;;7.88;5.10;;;22.00;88.20;;;;;;5033297;28;20035;-66
2021/06/20 00:54:29;;;;;;;10.07;5.57;;;21.90;89.20;;;;;;5033683;28;20124;-67
2021/06/20 00:56:55;;;;;;;14.10;5.35;;;21.90;90.00;;;;;;5051178;28;20395;-66
2021/06/20 00:59:20;;;;;;;9.57;5.00;;;21.80;90.20;;;;;;5051096;28;20028;-67
2021/06/20 01:01:46;;;;;;;8.55;5.43;;;21.90;90.70;;;;;;5051336;28;20033;-66
2021/06/20 01:04:11;;;;;;;9.05;5.47;;;21.90;91.60;;;;;;5051341;28;20126;-66
2021/06/20 01:06:37;;;;;;;9.10;5.57;;;21.90;91.50;;;;;;5033048;28;20085;-66
2021/06/20 01:09:03;;;;;;;7.32;4.80;;;21.80;90.00;;;;;;5051110;28;20029;-67
2021/06/20 01:11:29;;;;;;;6.82;4.18;;;22.00;91.00;;;;;;5033423;28;20055;-66
2021/06/20 01:13:55;;;;;;;8.75;3.53;;;22.90;86.70;;;;;;5050749;28;20036;-67
2021/06/20 01:16:20;;;;;;;7.45;4.68;;;23.30;84.30;;;;;;5051310;28;20112;-66
2021/06/20 01:18:46;;;;;;;8.98;4.75;;;22.90;87.10;;;;;;5050630;28;20021;-66
2021/06/20 01:21:11;;;;;;;9.70;5.60;;;22.20;91.20;;;;;;5033310;28;20028;-66
2021/06/20 01:23:37;;;;;;;30.27;5.93;;;21.60;93.20;;;;;;5051217;28;20029;-65
2021/06/20 01:26:02;;;;;;;6.88;3.92;;;22.10;91.30;;;;;;5051155;28;20036;-64
2021/06/20 01:28:30;;;;;;;7.15;3.83;;;23.00;87.40;;;;;;5050678;28;20051;-65
2021/06/20 01:30:58;;;;;;;8.13;3.95;;;23.40;85.10;;;;;;5051249;28;20060;-64
2021/06/20 01:33:25;;;;;;;6.78;3.55;;;23.50;84.20;;;;;;5050895;28;20120;-65
2021/06/20 01:35:51;;;;;;;6.43;3.40;;;23.50;83.40;;;;;;5050966;28;20044;-64
2021/06/20 01:38:16;;;;;;;5.80;3.72;;;23.70;83.20;;;;;;5050801;28;20021;-64
2021/06/20 01:40:42;;;;;;;6.93;3.35;;;23.70;83.00;;;;;;5050908;28;20421;-64
2021/06/20 01:43:08;;;;;;;5.88;3.53;;;23.70;83.90;;;;;;5051012;28;20054;-64
2021/06/20 01:45:36;;;;;;;9.27;3.60;;;23.80;82.30;;;;;;5051067;28;20028;-65
2021/06/20 01:48:02;;;;;;;8.40;3.35;;;23.90;82.20;;;;;;5050140;28;20051;-64
2021/06/20 01:50:30;;;;;;;12.65;3.83;;;24.00;82.30;;;;;;5050772;28;20021;-64
2021/06/20 01:53:07;;;;;;;13.57;3.85;;;24.00;82.90;;;;;;5051106;28;20032;-65
2021/06/20 01:55:35;;;;;;;10.25;3.20;;;24.00;81.60;;;;;;5050682;28;20017;-65
2021/06/20 01:58:02;;;;;;;6.93;2.78;;;24.20;80.80;;;;;;5050389;28;20060;-65
2021/06/20 02:00:27;;;;;;;6.32;2.88;;;24.20;81.10;;;;;;5032885;28;20025;-64
2021/06/20 02:02:53;;;;;;;8.45;3.40;;;24.10;81.70;;;;;;5037325;28;20084;-64
2021/06/20 02:05:24;;;;;;;6.05;3.00;;;23.90;82.50;;;;;;5043183;28;20061;-65
2021/06/20 02:07:49;;;;;;;8.40;3.10;;;23.80;82.70;;;;;;5049288;28;20029;-65
2021/06/20 02:10:15;;;;;;;6.95;3.10;;;23.70;83.10;;;;;;5050438;28;20264;-65
2021/06/20 02:12:41;;;;;;;6.63;2.95;;;23.80;83.10;;;;;;5050337;28;20529;-65
2021/06/20 02:15:08;;;;;;;13.77;3.10;;;23.70;83.30;;;;;;5050715;28;20386;-65
2021/06/20 02:17:35;;;;;;;8.32;2.70;;;23.60;84.20;;;;;;5049922;28;20025;-65
2021/06/20 02:20:02;;;;;;;6.15;2.90;;;23.50;85.10;;;;;;5050573;28;20025;-64
2021/06/20 02:22:29;;;;;;;7.47;3.08;;;23.50;85.20;;;;;;5050415;28;20033;-64
2021/06/20 02:24:55;;;;;;;6.93;2.80;;;23.40;86.40;;;;;;5050619;28;20543;-65
2021/06/20 02:27:21;;;;;;;7.28;3.10;;;23.30;86.80;;;;;;5053332;28;20041;-65
2021/06/20 02:29:52;;;;;;;6.20;2.60;;;23.30;87.00;;;;;;5054176;28;20446;-64
2021/06/20 02:32:18;;;;;;;6.10;2.67;;;23.20;86.90;;;;;;5036278;28;20025;-64
2021/06/20 02:34:44;;;;;;;6.88;2.50;;;23.20;87.00;;;;;;5054184;28;20033;-64
2021/06/20 02:37:11;;;;;;;7.85;2.15;;;23.20;87.00;;;;;;5053483;28;20535;-64
2021/06/20 02:39:38;;;;;;;6.82;2.22;;;23.10;87.30;;;;;;5053725;28;20021;-64
2021/06/20 02:42:05;;;;;;;6.38;2.17;;;23.10;87.60;;;;;;5053922;28;20032;-64
2021/06/20 02:44:30;;;;;;;5.40;1.95;;;23.10;87.70;;;;;;5053493;28;20032;-64
2021/06/20 02:46:59;;;;;;;8.20;2.53;;;23.00;88.10;;;;;;5035490;28;20025;-65
2021/06/20 02:49:26;;;;;;;8.93;2.70;;;22.90;88.60;;;;;;5053609;28;20082;-64
2021/06/20 02:51:51;;;;;;;6.35;2.45;;;22.90;88.90;;;;;;5053631;28;20025;-64
2021/06/20 02:54:17;;;;;;;6.88;2.00;;;22.80;89.10;;;;;;5053667;28;20078;-63
2021/06/20 02:56:42;;;;;;;6.97;2.00;;;22.80;89.70;;;;;;5053459;28;20021;-64
2021/06/20 02:59:08;;;;;;;8.55;2.58;;;22.80;89.40;;;;;;5053360;28;20094;-64
2021/06/20 03:01:33;;;;;;;5.22;2.00;;;22.80;89.30;;;;;;5053538;28;20075;-64
2021/06/20 03:03:59;;;;;;;6.57;2.13;;;22.80;89.50;;;;;;5053294;28;20029;-64
2021/06/20 03:06:25;;;;;;;5.28;1.80;;;22.80;89.60;;;;;;5034948;28;20028;-64
2021/06/20 03:08:50;;;;;;;6.50;1.90;;;22.70;89.90;;;;;;5052865;28;20028;-64
2021/06/20 03:11:16;;;;;;;6.25;2.05;;;22.70;90.20;;;;;;5053496;28;20064;-64
2021/06/20 03:13:42;;;;;;;4.90;1.70;;;22.70;90.40;;;;;;5034808;28;20107;-64
2021/06/20 03:16:07;;;;;;;5.85;1.80;;;22.60;90.50;;;;;;5052168;28;20033;-64
2021/06/20 03:18:33;;;;;;;3.85;1.50;;;22.40;90.70;;;;;;5052338;28;20079;-64
2021/06/20 03:20:59;;;;;;;4.70;1.60;;;22.40;90.70;;;;;;5052274;28;20425;-64
2021/06/20 03:23:24;;;;;;;5.03;1.60;;;22.30;90.90;;;;;;5051890;28;20490;-65
2021/06/20 03:25:50;;;;;;;5.32;1.65;;;22.20;91.00;;;;;;5052893;28;20082;-65
2021/06/20 03:28:16;;;;;;;6.03;1.80;;;22.20;91.00;;;;;;5034557;28;20029;-65
2021/06/20 03:30:41;;;;;;;6.80;1.90;;;22.30;91.20;;;;;;5053171;28;20021;-65
2021/06/20 03:33:07;;;;;;;4.35;1.65;;;22.30;90.90;;;;;;5053052;28;20021;-65
2021/06/20 03:35:32;;;;;;;7.40;1.95;;;22.30;90.90;;;;;;5034797;28;20021;-65
2021/06/20 03:37:58;;;;;;;4.88;1.83;;;22.20;90.90;;;;;;5034465;28;20025;-65
2021/06/20 03:40:24;;;;;;;5.47;1.55;;;22.20;91.00;;;;;;5053042;28;20028;-65
2021/06/20 03:42:49;;;;;;;5.85;1.80;;;22.20;91.00;;;;;;5052854;28;20025;-65
2021/06/20 03:45:15;;;;;;;5.55;2.15;;;22.10;91.20;;;;;;5034779;28;20021;-65
2021/06/20 03:47:40;;;;;;;6.22;2.05;;;22.20;91.20;;;;;;5052326;28;20398;-65
2021/06/20 03:50:08;;;;;;;7.20;2.20;;;22.20;91.20;;;;;;5034865;28;20517;-65
2021/06/20 03:52:34;;;;;;;6.43;2.10;;;22.10;91.40;;;;;;5034597;28;20021;-65
2021/06/20 03:55:00;;;;;;;7.80;2.20;;;22.10;91.50;;;;;;5052497;28;20040;-65
2021/06/20 03:57:26;;;;;;;10.10;2.35;;;22.10;91.70;;;;;;5052083;28;20025;-64
2021/06/20 03:59:52;;;;;;;7.80;2.20;;;22.10;91.70;;;;;;5052418;28;20017;-65
2021/06/20 04:02:17;;;;;;;12.05;2.45;;;22.10;91.70;;;;;;5052627;28;20021;-64
2021/06/20 04:04:43;;;;;;;8.68;2.40;;;22.10;91.60;;;;;;5050244;28;20025;-64
2021/06/20 04:07:12;;;;;;;6.72;2.40;;;22.10;91.70;;;;;;5051382;28;20438;-64
2021/06/20 04:09:41;;;;;;;7.40;2.33;;;22.10;91.90;;;;;;5073939;22;20047;-62
2021/06/20 04:12:10;;;;;;;9.18;2.65;;;22.10;92.00;;;;;;5069977;28;20416;-64
2021/06/20 04:14:36;;;;;;;7.55;2.15;;;22.10;92.00;;;;;;5071824;28;20032;-62
2021/06/20 04:17:01;;;;;;;9.70;2.33;;;22.00;92.20;;;;;;5071434;28;20024;-60
2021/06/20 04:19:27;;;;;;;6.78;2.55;;;22.10;92.10;;;;;;5067242;28;20039;-61
2021/06/20 04:21:53;;;;;;;9.85;3.00;;;22.10;91.80;;;;;;5072252;28;20504;-65
2021/06/20 04:24:18;;;;;;;7.28;2.40;;;22.10;91.60;;;;;;5071817;28;20024;-61
2021/06/20 04:26:44;;;;;;;8.00;2.30;;;22.20;91.70;;;;;;5062037;28;20020;-62
2021/06/20 04:29:10;;;;;;;10.45;2.88;;;22.20;91.40;;;;;;5071603;28;20425;-63
2021/06/20 04:31:36;;;;;;;9.25;2.60;;;22.30;91.30;;;;;;5071886;28;20024;-63
2021/06/20 04:34:02;;;;;;;8.35;2.80;;;22.30;91.20;;;;;;5071632;28;20036;-63
2021/06/20 04:36:29;;;;;;;10.15;2.95;;;22.20;91.40;;;;;;5071736;28;20028;-62
2021/06/20 04:38:54;;;;;;;8.73;2.50;;;22.30;91.30;;;;;;5070361;28;20027;-63
2021/06/20 04:41:21;;;;;;;9.07;2.75;;;22.30;91.30;;;;;;5071703;28;20474;-62
2021/06/20 04:46:28;;;;;;;10.52;2.65;;;22.20;91.20;;;;;;5071619;28;20020;-63
2021/06/20 04:49:01;;;;;;;7.45;2.47;;;22.20;91.10;;;;;;5052956;28;20565;-63
2021/06/20 04:51:31;;;;;;;11.18;2.70;;;22.30;90.80;;;;;;5071628;28;20540;-63
2021/06/20 04:53:57;;;;;;;9.15;2.47;;;22.20;90.60;;;;;;5071564;28;20494;-63
2021/06/20 04:56:23;;;;;;;10.82;3.47;;;22.30;90.70;;;;;;5071238;28;20064;-63
2021/06/20 04:58:48;;;;;;;8.90;2.55;;;22.20;90.50;;;;;;5071152;28;20044;-63
2021/06/20 05:01:14;;;;;;;9.73;2.58;;;22.20;90.70;;;;;;5053437;28;20078;-63
2021/06/20 05:03:39;;;;;;;8.27;2.33;;;22.20;90.80;;;;;;5053466;28;20021;-63
2021/06/20 05:06:05;;;;;;;10.10;2.60;;;22.30;90.70;;;;;;5071351;28;20052;-63
2021/06/20 05:08:30;;;;;;;8.60;2.55;;;22.40;90.50;;;;;;5052485;28;20657;-63
2021/06/20 05:10:56;;;;;;;7.60;2.83;;;22.50;90.40;;;;;;5071327;28;20115;-62
2021/06/20 05:13:21;;;;;;;8.00;2.90;;;22.50;90.50;;;;;;5071277;28;20070;-61
2021/06/20 05:15:47;;;;;;;7.95;2.28;;;22.50;90.20;;;;;;5071244;28;20028;-63
2021/06/20 05:18:13;;;;;;;7.72;2.65;;;22.50;90.30;;;;;;5070874;28;20100;-61
2021/06/20 05:20:40;;;;;;;8.32;2.92;;;22.50;90.30;;;;;;5071189;28;20484;-63
2021/06/20 05:23:09;;;;;;;9.10;3.00;;;22.50;90.00;;;;;;5053144;28;20021;-62
2021/06/20 05:25:36;;;;;;;9.45;2.92;;;22.60;90.00;;;;;;5070814;28;20017;-65
2021/06/20 05:28:02;;;;;;;7.60;2.63;;;22.50;89.90;;;;;;5070804;28;20060;-63
2021/06/20 05:30:27;;;;;;;7.80;2.92;;;22.50;90.30;;;;;;5070921;28;20090;-63
2021/06/20 05:32:54;;;;;;;9.90;2.67;;;22.50;90.40;;;;;;5071089;28;20039;-63
2021/06/20 05:35:20;;;;;;;9.60;2.95;;;22.50;90.50;;;;;;5071226;28;20062;-64
2021/06/20 05:37:46;;;;;;;10.77;3.35;;;22.50;90.60;;;;;;5070584;28;20072;-63
2021/06/20 05:40:13;;;;;;;9.27;2.90;;;22.50;90.50;;;;;;5070876;28;20078;-63
2021/06/20 05:42:38;;;;;;;8.88;3.00;;;22.60;90.70;;;;;;5052842;28;20020;-63
2021/06/20 05:45:05;;;;;;;9.18;2.90;;;22.60;90.30;;;;;;5071176;28;20032;-62
2021/06/20 05:47:30;;;;;;;7.18;2.95;;;22.50;90.50;;;;;;5070549;28;20028;-63
2021/06/20 05:49:56;;;;;;;10.38;3.80;;;22.60;90.20;;;;;;5070667;28;20082;-63
2021/06/20 05:52:22;;;;;;;8.60;3.20;;;22.50;90.10;;;;;;5053008;28;20383;-63
2021/06/20 05:54:50;;;;;;;7.75;3.13;;;22.60;90.40;;;;;;5052954;28;20025;-63
2021/06/20 05:57:20;;;;;;;8.20;3.05;;;22.80;89.80;;;;;;5070558;28;20082;-63
2021/06/20 05:59:46;;;;;;;7.47;3.08;;;22.90;89.60;;;;;;5070642;28;20466;-63
2021/06/20 06:02:12;;;;;;;9.10;3.15;;;22.90;89.50;;;;;;5056472;28;20028;-63
2021/06/20 06:04:38;;;;;;;10.13;3.78;;;22.90;88.70;;;;;;5074545;28;20020;-64
2021/06/20 06:07:04;;;;;;;9.85;3.63;;;22.90;89.10;;;;;;5073825;28;20025;-64
2021/06/20 06:09:30;;;;;;;8.15;3.40;;;22.90;89.00;;;;;;5074457;28;20083;-64
2021/06/20 06:11:56;;;;;;;8.65;3.55;;;22.90;88.00;;;;;;5074406;28;20037;-63
2021/06/20 06:14:22;;;;;;;8.80;3.38;;;23.00;87.80;;;;;;5056595;28;20020;-63
2021/06/20 06:16:48;;;;;;;7.28;3.38;;;23.10;87.40;;;;;;5073983;28;20551;-62
2021/06/20 06:19:16;;;;;;;5.88;3.30;;;23.10;86.70;;;;;;5074276;28;20028;-63
2021/06/20 06:21:42;;;;;;;8.05;3.60;;;23.10;86.00;;;;;;5074354;28;20473;-64
2021/06/20 06:24:08;;;;;;;7.90;3.55;;;23.20;85.50;;;;;;5074334;28;20025;-63
2021/06/20 06:26:34;;;;;;;9.73;3.75;;;23.20;85.00;;;;;;5056261;28;20481;-63
2021/06/20 06:28:59;;;;;;;8.98;3.90;;;23.30;84.60;;;;;;5055951;28;20043;-64
2021/06/20 06:31:25;;;;;;;7.68;3.75;;;23.40;84.10;;;;;;5074008;28;20028;-63
2021/06/20 06:33:50;;;;;;;10.77;4.45;;;23.30;84.00;;;;;;5055612;28;20024;-64
2021/06/20 06:36:16;;;;;;;8.45;4.10;;;23.40;84.40;;;;;;5070922;28;20392;-63
2021/06/20 06:38:42;;;;;;;10.90;4.50;;;23.30;84.10;;;;;;5067732;28;20017;-61
2021/06/20 06:41:07;;;;;;;7.97;4.25;;;23.30;84.20;;;;;;5050033;28;20508;-62
2021/06/20 06:43:33;;;;;;;10.27;4.38;;;23.30;83.90;;;;;;5062472;28;20024;-63
2021/06/20 06:45:59;;;;;;;8.55;4.82;;;23.20;83.80;;;;;;5064115;28;20033;-61
2021/06/20 06:48:25;;;;;;;10.27;4.93;;;23.20;83.90;;;;;;5049191;28;20032;-60
2021/06/20 06:50:51;;;;;;;8.23;4.90;;;23.20;83.10;;;;;;5048340;28;20500;-65
2021/06/20 06:53:17;;;;;;;7.22;4.65;;;23.20;83.20;;;;;;5049640;28;20029;-64
2021/06/20 06:55:42;;;;;;;8.73;4.70;;;23.30;83.30;;;;;;5065203;28;20148;-63
2021/06/20 06:58:08;;;;;;;9.55;6.00;;;23.30;83.30;;;;;;5061377;28;20016;-63
2021/06/20 07:00:34;;;;;;;9.75;5.63;;;23.10;83.10;;;;;;5049279;28;20024;-64
2021/06/20 07:03:00;;;;;;;7.90;5.43;;;23.20;83.00;;;;;;5067274;28;20556;-64
2021/06/20 07:05:26;;;;;;;9.13;5.60;;;23.30;82.50;;;;;;5067667;28;20028;-65
2021/06/20 07:07:52;;;;;;;7.30;5.00;;;23.40;82.40;;;;;;5067219;28;20032;-62
2021/06/20 07:10:18;;;;;;;10.95;4.45;;;23.60;81.00;;;;;;5066925;28;20112;-64
2021/06/20 07:12:44;;;;;;;9.82;4.65;;;23.50;80.80;;;;;;5066905;28;20898;-61
2021/06/20 07:15:10;;;;;;;7.88;4.43;;;23.50;80.70;;;;;;5067225;28;20855;-63
2021/06/20 07:17:37;;;;;;;8.15;4.70;;;23.50;80.20;;;;;;5044188;28;20036;-63
2021/06/20 07:20:06;;;;;;;7.63;4.70;;;23.60;80.00;;;;;;5066840;28;20496;-63
2021/06/20 07:22:32;;;;;;;9.20;5.10;;;23.50;78.90;;;;;;5067284;28;20124;-65
2021/06/20 07:24:57;;;;;;;8.85;4.75;;;23.60;79.40;;;;;;5067249;28;20545;-65
2021/06/20 07:27:23;;;;;;;9.18;4.57;;;23.50;78.50;;;;;;5041088;28;20123;-65
2021/06/20 07:29:48;;;;;;;7.45;4.20;;;23.70;78.10;;;;;;5064961;28;20085;-65
2021/06/20 07:32:14;;;;;;;9.68;3.85;;;24.00;77.30;;;;;;5064670;28;20020;-65
2021/06/20 07:34:40;;;;;;;7.15;3.88;;;24.20;75.80;;;;;;5060480;28;20036;-64
2021/06/20 07:37:05;;;;;;;7.40;3.90;;;24.20;75.40;;;;;;5065812;28;20063;-62
2021/06/20 07:39:31;;;;;;;7.07;3.72;;;24.30;75.80;;;;;;5067204;28;20020;-65
2021/06/20 07:41:58;;;;;;;6.80;3.60;;;24.30;74.70;;;;;;5048463;28;20029;-63
2021/06/20 07:44:24;;;;;;;11.15;3.35;;;24.30;74.20;;;;;;5066592;28;20389;-68
2021/06/20 07:46:50;;;;;;;8.70;3.42;;;24.40;74.50;;;;;;5066402;28;20036;-62
2021/06/20 07:49:16;;;;;;;7.30;3.15;;;24.50;73.30;;;;;;5066097;28;20081;-61
2021/06/20 07:51:42;;;;;;;7.22;2.90;;;24.60;73.50;;;;;;5066070;28;20029;-61
2021/06/20 07:54:08;;;;;;;7.30;3.08;;;24.60;73.40;;;;;;5065511;28;20700;-68
2021/06/20 07:56:33;;;;;;;5.47;2.67;;;24.60;73.00;;;;;;5064699;28;20024;-64
2021/06/20 07:58:59;;;;;;;6.75;2.85;;;24.40;73.10;;;;;;5070666;28;20035;-71
2021/06/20 08:01:25;;;;;;;6.85;3.20;;;24.50;72.50;;;;;;5070337;28;20016;-67
2021/06/20 08:03:51;;;;;;;5.13;2.80;;;24.60;72.90;;;;;;5068757;28;20020;-68
2021/06/20 08:06:16;;;;;;;9.18;2.85;;;24.60;73.10;;;;;;5070054;28;20024;-67
2021/06/20 08:08:42;;;;;;;6.35;3.58;;;24.60;72.90;;;;;;5071194;28;20115;-67
2021/06/20 08:11:07;;;;;;;8.07;2.97;;;24.50;73.30;;;;;;5072344;28;20500;-64
2021/06/20 08:13:33;;;;;;;6.35;2.67;;;24.70;72.50;;;;;;5071517;28;20511;-62
2021/06/20 08:15:58;;;;;;;5.90;2.85;;;24.70;71.50;;;;;;5072032;28;20550;-63
2021/06/20 08:18:24;;;;;;;7.47;2.90;;;24.70;71.00;;;;;;5053823;28;20078;-62
2021/06/20 08:20:49;;;;;;;6.28;2.80;;;24.70;71.20;;;;;;5054393;28;20048;-64
2021/06/20 08:23:15;;;;;;;8.90;3.00;;;24.90;71.20;;;;;;5066651;28;20048;-63
2021/06/20 08:25:41;;;;;;;5.18;2.90;;;25.00;71.30;;;;;;5069170;28;20021;-64
2021/06/20 08:28:06;;;;;;;4.70;3.00;;;24.80;68.90;;;;;;5068504;28;20031;-65
2021/06/20 08:30:32;;;;;;;5.65;2.58;;;25.00;69.10;;;;;;5052917;28;20508;-64
2021/06/20 08:32:58;;;;;;;5.30;2.72;;;25.30;69.40;;;;;;5069545;28;20086;-63
2021/06/20 08:35:23;;;;;;;5.47;3.00;;;25.40;67.90;;;;;;5067632;28;20489;-64
2021/06/20 08:37:49;;;;;;;6.55;3.10;;;25.30;67.00;;;;;;5070663;28;20020;-64
2021/06/20 08:40:15;;;;;;;5.85;3.25;;;25.30;66.50;;;;;;5071190;28;20020;-63
2021/06/20 08:42:41;;;;;;;4.97;2.70;;;25.20;67.10;;;;;;5063870;28;20028;-63
2021/06/20 08:45:07;;;;;;;6.68;2.90;;;25.20;68.10;;;;;;5067440;28;20527;-63
2021/06/20 08:47:34;;;;;;;7.13;2.80;;;25.40;68.00;;;;;;5065552;28;20036;-65
2021/06/20 08:50:00;;;;;;;5.85;2.78;;;25.50;66.90;;;;;;5069502;28;20101;-63
2021/06/20 08:52:26;;;;;;;8.98;2.97;;;25.50;66.90;;;;;;5053238;28;20439;-61
2021/06/20 08:55:01;;;;;;;6.07;2.80;;;25.70;66.70;;;;;;5064880;28;20028;-65
2021/06/20 08:57:35;;;;;;;8.43;2.88;;;25.70;66.50;;;;;;5068112;28;20062;-65
2021/06/20 09:00:00;;;;;;;5.57;2.80;;;25.90;66.80;;;;;;5051668;28;20085;-64
2021/06/20 09:02:27;;;;;;;6.65;3.10;;;26.00;65.00;;;;;;5052514;28;20025;-63
2021/06/20 09:05:03;;;;;;;11.45;3.00;;;25.90;64.20;;;;;;5071363;28;20024;-65
2021/06/20 09:07:34;;;;;;;6.03;2.90;;;25.90;65.00;;;;;;5052636;28;20063;-63
2021/06/20 09:10:11;;;;;;;7.18;2.90;;;25.90;64.70;;;;;;5050907;28;20035;-62
2021/06/20 09:12:50;;;;;;;4.82;2.60;;;25.90;65.90;;;;;;5046678;28;20040;-62
2021/06/20 09:15:18;;;;;;;7.05;3.00;;;26.00;64.70;;;;;;5069165;28;20036;-63
2021/06/20 09:17:48;;;;;;;4.90;2.60;;;26.20;65.10;;;;;;5067755;28;20024;-64
2021/06/20 09:20:14;;;;;;;8.30;3.13;;;26.20;63.90;;;;;;5051186;28;20024;-59
2021/06/20 09:22:39;;;;;;;5.75;2.72;;;26.10;63.20;;;;;;5071419;28;20049;-64
2021/06/20 09:25:14;;;;;;;6.55;3.30;;;26.00;63.70;;;;;;5071277;28;20031;-63
2021/06/20 09:27:52;;;;;;;5.28;2.67;;;26.00;64.20;;;;;;5053254;28;20516;-62
2021/06/20 09:30:18;;;;;;;5.00;2.83;;;26.10;64.50;;;;;;5071389;28;20036;-64
2021/06/20 09:32:58;;;;;;;7.97;2.65;;;26.20;64.30;;;;;;5071275;28;20443;-64
2021/06/20 09:35:26;;;;;;;4.57;2.65;;;26.30;63.80;;;;;;5072081;28;20031;-63
2021/06/20 09:37:55;;;;;;;5.40;2.53;;;26.40;63.30;;;;;;5069127;28;20025;-63
2021/06/20 09:40:25;;;;;;;6.60;2.65;;;26.40;62.30;;;;;;5037410;28;20025;-63
2021/06/20 09:42:51;;;;;;;8.95;2.40;;;26.40;61.80;;;;;;5037618;28;20021;-62
2021/06/20 09:45:28;;;;;;;6.63;2.53;;;26.40;61.40;;;;;;5055265;28;20352;-63
2021/06/20 09:47:53;;;;;;;6.40;2.60;;;26.40;61.00;;;;;;5037225;28;20378;-63
2021/06/20 09:50:33;;;;;;;7.47;2.50;;;26.50;61.00;;;;;;5056554;28;20063;-63
2021/06/20 09:53:00;;;;;;;5.03;2.20;;;26.50;60.70;;;;;;5074987;28;20389;-62
2021/06/20 09:55:25;;;;;;;6.80;2.42;;;26.50;59.60;;;;;;5074812;28;20017;-63
2021/06/20 09:57:51;;;;;;;6.15;2.50;;;26.50;60.30;;;;;;5056813;28;20522;-59
2021/06/20 10:00:17;;;;;;;5.47;2.58;;;26.40;58.90;;;;;;5044063;28;20024;-63
2021/06/20 10:02:43;;;;;;;4.65;2.30;;;26.40;59.20;;;;;;5074995;28;20497;-63
2021/06/20 10:05:10;;;;;;;5.60;2.22;;;26.50;59.60;;;;;;5056781;28;20025;-63
2021/06/20 10:07:36;;;;;;;5.43;2.33;;;26.60;59.80;;;;;;5056729;28;20074;-62
2021/06/20 10:10:05;;;;;;;5.45;2.20;;;26.70;59.60;;;;;;5076064;28;20485;-62
2021/06/20 10:12:30;;;;;;;4.65;2.40;;;26.40;59.90;;;;;;5074874;28;20123;-62
2021/06/20 10:14:58;;;;;;;6.10;2.08;;;26.40;60.00;;;;;;5053137;28;20064;-61
2021/06/20 10:17:32;;;;;;;5.03;2.40;;;26.60;59.60;;;;;;5059303;28;20055;-62
2021/06/20 10:20:00;;;;;;;5.35;2.35;;;26.70;59.10;;;;;;5074663;28;20024;-62
2021/06/20 10:22:35;;;;;;;5.00;2.25;;;26.80;59.10;;;;;;5056250;28;20050;-62
2021/06/20 10:25:01;;;;;;;3.22;1.88;;;26.90;58.80;;;;;;5067676;28;20078;-62
2021/06/20 10:27:34;;;;;;;6.72;2.28;;;26.90;58.20;;;;;;5054400;28;20108;-62
2021/06/20 10:30:04;;;;;;;3.40;1.88;;;26.80;58.10;;;;;;5054058;28;20504;-62
2021/06/20 10:32:37;;;;;;;4.45;1.90;;;26.80;57.80;;;;;;5055011;28;20060;-62
2021/06/20 10:35:07;;;;;;;3.58;1.80;;;26.70;57.00;;;;;;5054343;28;20029;-62
2021/06/20 10:37:36;;;;;;;4.25;1.80;;;26.80;57.40;;;;;;5036249;28;20025;-63
2021/06/20 10:40:04;;;;;;;4.53;1.98;;;26.80;58.00;;;;;;5036455;28;20120;-63
2021/06/20 10:42:37;;;;;;;5.00;2.08;;;26.70;57.50;;;;;;5036369;28;20090;-70
2021/06/20 10:45:09;;;;;;;3.92;2.00;;;26.80;57.50;;;;;;5049539;28;20021;-62
2021/06/20 10:47:35;;;;;;;;;;;26.70;58.40;;;;;;5070543;28;20102;-60
2021/06/20 10:50:21;;;;;;;3.47;1.90;;;26.70;57.40;;;;;;5071906;28;20435;-61
2021/06/20 10:52:59;;;;;;;2.55;1.70;;;26.70;57.30;;;;;;5059740;28;20557;-62
2021/06/20 10:55:25;;;;;;;3.88;1.92;;;26.60;57.90;;;;;;5052821;28;20033;-62
2021/06/20 10:57:55;;;;;;;3.17;1.70;;;26.50;58.80;;;;;;5052242;28;20025;-62
2021/06/20 11:00:32;;;;;;;3.90;2.03;;;26.60;57.20;;;;;;5034611;28;20025;-63
2021/06/20 11:03:09;;;;;;;4.90;1.60;;;26.60;56.40;;;;;;5053726;28;20049;-62
2021/06/20 11:05:46;;;;;;;4.20;1.83;;;26.70;56.40;;;;;;5058986;28;20029;-62
2021/06/20 11:08:12;;;;;;;3.65;2.00;;;26.50;55.60;;;;;;5072966;28;20735;-63
2021/06/20 11:10:38;;;;;;;3.70;2.00;;;26.40;55.90;;;;;;5053425;28;20036;-62
2021/06/20 11:13:04;;;;;;;3.03;1.80;;;26.30;56.20;;;;;;5035348;28;20028;-62
2021/06/20 11:15:30;;;;;;;4.15;2.00;;;26.30;56.00;;;;;;5053300;28;20028;-62
2021/06/20 11:18:09;;;;;;;4.10;1.60;;;26.30;55.80;;;;;;5053043;28;20033;-63
2021/06/20 11:20:36;;;;;;;4.82;2.22;;;26.10;56.10;;;;;;5052758;28;20025;-62
2021/06/20 11:23:03;;;;;;;4.78;1.90;;;26.10;57.60;;;;;;5053026;28;20017;-63
2021/06/20 11:25:29;;;;;;;4.25;1.80;;;26.20;57.70;;;;;;5045079;28;20048;-63
2021/06/20 11:27:56;;;;;;;4.90;1.60;;;26.30;58.30;;;;;;5054762;28;20509;-63
2021/06/20 11:30:22;;;;;;;4.15;1.75;;;26.30;58.60;;;;;;5054600;28;20604;-62
2021/06/20 11:32:48;;;;;;;3.80;1.80;;;26.30;58.70;;;;;;5072987;28;20107;-63
2021/06/20 11:35:16;;;;;;;4.72;1.70;;;26.30;58.90;;;;;;5054821;28;20048;-63
2021/06/20 11:37:55;;;;;;;3.47;1.60;;;26.40;58.60;;;;;;5054338;28;20461;-63
2021/06/20 11:40:24;;;;;;;4.80;1.80;;;26.30;58.60;;;;;;5072555;28;20017;-62
2021/06/20 11:42:52;;;;;;;3.55;2.00;;;26.40;57.30;;;;;;5072295;28;20017;-63
2021/06/20 11:45:20;;;;;;;5.53;1.90;;;26.40;57.40;;;;;;5052780;28;20021;-63
2021/06/20 11:47:51;;;;;;;4.63;1.90;;;26.30;56.30;;;;;;5071525;28;20082;-63
2021/06/20 11:50:23;;;;;;;3.63;1.88;;;26.30;56.90;;;;;;5072242;28;20477;-64
2021/06/20 11:52:56;;;;;;;4.57;1.60;;;26.20;57.30;;;;;;5073075;28;20574;-62
2021/06/20 11:55:24;;;;;;;4.32;1.63;;;26.30;56.50;;;;;;5072718;28;20120;-63
2021/06/20 11:57:51;;;;;;;2.97;1.50;;;26.30;56.10;;;;;;5072426;28;20024;-63
2021/06/20 12:00:22;;;;;;;3.15;1.33;;;26.30;55.90;;;;;;5072762;28;20029;-68
2021/06/20 12:03:17;;;;;;;;;;;26.30;54.60;;;;;;5055271;28;20059;-63
2021/06/20 12:05:50;;;;;;;2.63;1.45;;;26.40;55.30;;;;;;5067869;28;19947;-64
2021/06/20 12:08:16;;;;;;;3.50;1.42;;;26.30;54.60;;;;;;5054422;28;20020;-62
2021/06/20 12:10:45;;;;;;;3.15;1.48;;;26.40;55.10;;;;;;5063885;28;20798;-63
2021/06/20 12:13:12;;;;;;;4.88;1.67;;;26.40;55.90;;;;;;5053056;28;20078;-59
2021/06/20 12:15:39;;;;;;;3.40;1.30;;;26.50;55.10;;;;;;5071626;28;20051;-66
2021/06/20 12:18:10;;;;;;;3.65;1.50;;;26.40;55.90;;;;;;5071372;28;20086;-65
2021/06/20 12:20:39;;;;;;;2.03;1.25;;;26.30;56.30;;;;;;5050290;28;20025;-65
2021/06/20 12:23:06;;;;;;;6.50;1.65;;;26.20;56.50;;;;;;5050679;28;20029;-63
2021/06/20 12:25:46;;;;;;;19.45;2.38;;;26.20;56.60;;;;;;5049869;28;20028;-64
2021/06/20 12:28:13;;;;;;;4.78;1.50;;;26.10;56.70;;;;;;5058796;28;20032;-64
2021/06/20 12:30:43;;;;;;;5.40;1.38;;;26.20;56.10;;;;;;5052370;28;20057;-64
2021/06/20 12:33:13;;;;;;;4.63;1.50;;;26.30;56.50;;;;;;5055410;28;20063;-63
2021/06/20 12:35:39;;;;;;;3.97;1.47;;;26.30;56.30;;;;;;5071987;28;20039;-64
2021/06/20 12:38:20;;;;;;;3.30;1.42;;;26.40;55.90;;;;;;5050296;28;20287;-63
2021/06/20 12:40:46;;;;;;;4.82;1.30;;;26.40;56.00;;;;;;5051895;28;20124;-63
2021/06/20 12:43:18;;;;;;;2.83;1.27;;;26.30;55.40;;;;;;5062322;28;20090;-60
2021/06/20 12:45:45;;;;;;;4.07;1.42;;;26.40;55.20;;;;;;5070731;28;20019;-60
2021/06/20 12:48:15;;;;;;;3.55;1.40;;;26.30;55.80;;;;;;5071584;28;20056;-64